Time;durP1;ratioP1;P1;durP2;ratioP2;P2;SDS_P1;SDS_P2;PMS_P1;PMS_P2;Temp;Humidity;BMP_temperature;BMP_pressure;BME280_temperature;BME280_humidity;BME280_pressure;Samples;Min_cycle;Max_cycle;Signal;HPM_P1;HPM_P2
2024/01/25 00:01:12;;;;;;;18.65;4.53;;;;;;;;;;6275986;22;20438;-85
2024/01/25 00:03:57;;;;;;;15.90;4.45;;;;;;;;;;6276207;22;20011;-83
2024/01/25 00:06:43;;;;;;;16.75;4.53;;;;;;;;;;6273612;22;20027;-85
2024/01/25 00:09:28;;;;;;;16.80;4.85;;;;;;;;;;6276734;22;20007;-83
2024/01/25 00:12:13;;;;;;;27.20;5.72;;;;;;;;;;6277185;22;20023;-85
2024/01/25 00:14:58;;;;;;;20.02;5.82;;;;;;;;;;6278318;22;20011;-86
2024/01/25 00:17:43;;;;;;;20.25;4.65;;;;;;;;;;6277942;22;20520;-87
2024/01/25 00:20:29;;;;;;;24.90;5.65;;;;;;;;;;6256638;22;19999;-86
2024/01/25 00:23:14;;;;;;;21.30;5.18;;;;;;;;;;6275977;22;19995;-86
2024/01/25 00:25:59;;;;;;;21.50;4.57;;;;;;;;;;6276992;22;19991;-85
2024/01/25 00:28:45;;;;;;;24.45;4.80;;;;;;;;;;6277261;22;20009;-86
2024/01/25 00:31:30;;;;;;;29.45;5.85;;;;;;;;;;6277561;22;20006;-85
2024/01/25 00:34:15;;;;;;;16.60;5.00;;;;;;;;;;6277809;22;20491;-87
2024/01/25 00:37:01;;;;;;;19.60;4.68;;;;;;;;;;6278076;22;20003;-87
2024/01/25 00:39:46;;;;;;;21.02;5.10;;;;;;;;;;6278754;22;20003;-85
2024/01/25 00:42:37;;;;;;;20.27;5.32;;;;;;;;;;6275046;22;20061;-86
2024/01/25 00:45:23;;;;;;;24.80;4.95;;;;;;;;;;6277902;22;20060;-86
2024/01/25 00:48:09;;;;;;;21.73;5.45;;;;;;;;;;6256703;22;19995;-87
2024/01/25 00:50:54;;;;;;;18.08;4.75;;;;;;;;;;6278705;22;20081;-85
2024/01/25 00:53:40;;;;;;;20.40;5.78;;;;;;;;;;6276468;22;19998;-86
2024/01/25 00:56:25;;;;;;;22.92;5.22;;;;;;;;;;6276039;22;20007;-86
2024/01/25 00:59:11;;;;;;;23.20;5.53;;;;;;;;;;6277152;22;20002;-86
2024/01/25 01:01:57;;;;;;;20.88;5.07;;;;;;;;;;6277524;22;20003;-85
2024/01/25 01:04:43;;;;;;;17.52;4.93;;;;;;;;;;6277343;22;20261;-86
2024/01/25 01:07:28;;;;;;;23.13;5.28;;;;;;;;;;6275329;22;20006;-85
2024/01/25 01:10:14;;;;;;;19.50;4.22;;;;;;;;;;6277373;22;20053;-86
2024/01/25 01:12:59;;;;;;;18.92;5.47;;;;;;;;;;6276901;22;20018;-85
2024/01/25 01:15:44;;;;;;;23.40;5.65;;;;;;;;;;6277173;22;20015;-86
2024/01/25 01:18:30;;;;;;;22.60;5.05;;;;;;;;;;6277481;22;20355;-83
2024/01/25 01:21:15;;;;;;;21.85;5.72;;;;;;;;;;6289184;22;20003;-84
2024/01/25 01:24:01;;;;;;;23.73;5.30;;;;;;;;;;6301485;22;20003;-86
2024/01/25 01:26:46;;;;;;;19.83;5.32;;;;;;;;;;6306317;22;20053;-83
2024/01/25 01:29:31;;;;;;;22.77;5.97;;;;;;;;;;6307366;22;19999;-86
2024/01/25 01:32:17;;;;;;;22.35;4.63;;;;;;;;;;6294665;22;20022;-85
2024/01/25 01:35:02;;;;;;;20.33;5.18;;;;;;;;;;6278025;22;20009;-84
2024/01/25 01:37:47;;;;;;;26.15;5.60;;;;;;;;;;6280611;22;20009;-84
2024/01/25 01:40:33;;;;;;;18.45;4.63;;;;;;;;;;6278225;22;20319;-85
2024/01/25 01:43:19;;;;;;;25.80;5.63;;;;;;;;;;6278695;22;20296;-86
2024/01/25 01:46:12;;;;;;;23.45;3.90;;;;;;;;;;6279254;22;20023;-85
2024/01/25 01:48:58;;;;;;;23.95;4.32;;;;;;;;;;6278466;22;19995;-85
2024/01/25 01:51:43;;;;;;;15.07;4.50;;;;;;;;;;6277436;22;20004;-86
2024/01/25 01:54:29;;;;;;;19.38;4.75;;;;;;;;;;6277566;22;20006;-86
2024/01/25 01:57:14;;;;;;;17.98;4.38;;;;;;;;;;6276868;22;20003;-85
2024/01/25 02:00:00;;;;;;;19.27;5.65;;;;;;;;;;6277020;22;20006;-86
2024/01/25 02:02:45;;;;;;;14.80;4.05;;;;;;;;;;6278104;22;20052;-87
2024/01/25 02:05:31;;;;;;;22.40;5.75;;;;;;;;;;6282530;22;20014;-86
2024/01/25 02:08:16;;;;;;;17.92;4.93;;;;;;;;;;6277368;22;20010;-87
2024/01/25 02:11:02;;;;;;;19.33;4.78;;;;;;;;;;6276628;22;20517;-86
2024/01/25 02:13:47;;;;;;;25.52;5.55;;;;;;;;;;6276344;22;20105;-86
2024/01/25 02:16:32;;;;;;;20.63;4.88;;;;;;;;;;6277901;22;20336;-87
2024/01/25 02:19:18;;;;;;;28.70;7.03;;;;;;;;;;6277154;22;19995;-87
2024/01/25 02:22:04;;;;;;;17.05;3.58;;;;;;;;;;6277283;22;19999;-85
2024/01/25 02:24:49;;;;;;;21.02;4.35;;;;;;;;;;6276464;22;19995;-85
2024/01/25 02:27:38;;;;;;;21.77;4.53;;;;;;;;;;6276090;22;20006;-85
2024/01/25 02:30:23;;;;;;;15.05;4.70;;;;;;;;;;6276069;22;20003;-85
2024/01/25 02:33:08;;;;;;;23.95;5.28;;;;;;;;;;6275844;22;20336;-84
2024/01/25 02:35:54;;;;;;;20.95;4.85;;;;;;;;;;6276959;22;19995;-84
2024/01/25 02:38:39;;;;;;;17.00;5.43;;;;;;;;;;6277773;22;20005;-83
2024/01/25 02:41:24;;;;;;;15.60;5.82;;;;;;;;;;6276871;22;19999;-86
2024/01/25 02:44:11;;;;;;;15.70;4.20;;;;;;;;;;6276371;22;20532;-86
2024/01/25 02:46:56;;;;;;;19.00;3.83;;;;;;;;;;6277896;22;19999;-85
2024/01/25 02:49:41;;;;;;;14.55;4.95;;;;;;;;;;6276828;22;20037;-85
2024/01/25 02:52:26;;;;;;;15.63;4.03;;;;;;;;;;6255276;22;19999;-86
2024/01/25 02:55:12;;;;;;;20.15;4.50;;;;;;;;;;6281935;22;20033;-84
2024/01/25 02:57:57;;;;;;;25.42;4.78;;;;;;;;;;6281330;22;20351;-86
2024/01/25 03:00:42;;;;;;;20.05;4.47;;;;;;;;;;6277785;22;20048;-88
2024/01/25 03:03:27;;;;;;;21.15;4.85;;;;;;;;;;6280906;22;20492;-86
2024/01/25 03:06:13;;;;;;;13.85;4.60;;;;;;;;;;6282211;22;20011;-86
2024/01/25 03:08:58;;;;;;;17.50;5.28;;;;;;;;;;6277205;22;20003;-86
2024/01/25 03:11:43;;;;;;;18.20;4.65;;;;;;;;;;6278688;22;20064;-84
2024/01/25 03:14:29;;;;;;;21.42;4.50;;;;;;;;;;6279488;22;20034;-85
2024/01/25 03:17:14;;;;;;;13.43;4.50;;;;;;;;;;6280399;22;20082;-85
2024/01/25 03:19:59;;;;;;;16.58;4.78;;;;;;;;;;6279504;22;19995;-85
2024/01/25 03:22:45;;;;;;;15.50;4.00;;;;;;;;;;6279013;22;19995;-84
2024/01/25 03:25:31;;;;;;;21.15;5.10;;;;;;;;;;6278261;22;20006;-85
2024/01/25 03:28:18;;;;;;;16.42;4.43;;;;;;;;;;6279299;22;20018;-82
2024/01/25 03:31:03;;;;;;;21.90;3.63;;;;;;;;;;6279525;22;20003;-81
2024/01/25 03:33:49;;;;;;;16.83;4.25;;;;;;;;;;6279686;22;19995;-81
2024/01/25 03:36:35;;;;;;;20.10;5.13;;;;;;;;;;6279887;22;20117;-81
2024/01/25 03:39:21;;;;;;;27.60;5.50;;;;;;;;;;6279900;22;20004;-80
2024/01/25 03:42:06;;;;;;;18.40;4.70;;;;;;;;;;6280479;22;20033;-80
2024/01/25 03:44:51;;;;;;;21.85;4.10;;;;;;;;;;6256602;22;20003;-80
2024/01/25 03:47:37;;;;;;;15.35;4.93;;;;;;;;;;6259039;22;20003;-82
2024/01/25 03:50:22;;;;;;;17.90;4.60;;;;;;;;;;6281026;22;19999;-82
2024/01/25 03:53:07;;;;;;;19.05;4.72;;;;;;;;;;6281361;22;19995;-82
2024/01/25 03:55:52;;;;;;;14.93;4.00;;;;;;;;;;6281626;22;19995;-82
2024/01/25 03:58:38;;;;;;;14.52;3.83;;;;;;;;;;6283073;22;19995;-83
2024/01/25 04:01:23;;;;;;;14.73;3.83;;;;;;;;;;6281269;22;20003;-81
2024/01/25 04:04:10;;;;;;;19.15;4.68;;;;;;;;;;6280255;22;20004;-83
2024/01/25 04:06:55;;;;;;;17.25;3.60;;;;;;;;;;6293679;22;20040;-82
2024/01/25 04:09:44;;;;;;;16.02;3.50;;;;;;;;;;6297357;22;20009;-83
2024/01/25 04:12:31;;;;;;;22.52;4.60;;;;;;;;;;6287262;22;20034;-82
2024/01/25 04:15:16;;;;;;;17.55;4.28;;;;;;;;;;6282465;22;20071;-83
2024/01/25 04:18:02;;;;;;;15.43;4.82;;;;;;;;;;6288332;22;19999;-83
2024/01/25 04:20:47;;;;;;;20.15;5.13;;;;;;;;;;6303512;22;20025;-83
2024/01/25 04:23:32;;;;;;;11.07;3.60;;;;;;;;;;6283289;22;20006;-82
2024/01/25 04:26:17;;;;;;;16.15;3.97;;;;;;;;;;6279840;22;20082;-82
2024/01/25 04:29:03;;;;;;;16.27;3.90;;;;;;;;;;6277777;22;19995;-82
2024/01/25 04:31:48;;;;;;;17.40;4.25;;;;;;;;;;6277693;22;20003;-82
2024/01/25 04:34:33;;;;;;;21.13;4.53;;;;;;;;;;6277494;22;19999;-81
2024/01/25 04:37:18;;;;;;;18.80;4.82;;;;;;;;;;6277905;22;20538;-83
2024/01/25 04:40:05;;;;;;;18.17;5.50;;;;;;;;;;6277244;22;20000;-83
2024/01/25 04:42:50;;;;;;;17.73;4.80;;;;;;;;;;6276639;22;20003;-83
2024/01/25 04:45:35;;;;;;;18.17;4.78;;;;;;;;;;6276380;22;20087;-83
2024/01/25 04:48:20;;;;;;;24.85;4.97;;;;;;;;;;6274601;22;20003;-83
2024/01/25 04:51:06;;;;;;;18.10;4.30;;;;;;;;;;6276642;22;20007;-83
2024/01/25 04:53:52;;;;;;;16.67;3.70;;;;;;;;;;6277574;22;19995;-82
2024/01/25 04:56:37;;;;;;;15.90;4.30;;;;;;;;;;6255917;22;20007;-82
2024/01/25 04:59:22;;;;;;;25.15;6.25;;;;;;;;;;6275768;22;20064;-82
2024/01/25 05:02:07;;;;;;;18.77;4.57;;;;;;;;;;6277940;22;19995;-85
2024/01/25 05:04:53;;;;;;;22.13;4.60;;;;;;;;;;6277689;22;20003;-83
2024/01/25 05:07:38;;;;;;;17.80;4.63;;;;;;;;;;6274425;22;20109;-83
2024/01/25 05:10:25;;;;;;;21.08;4.47;;;;;;;;;;6277065;22;19999;-84
2024/01/25 05:13:11;;;;;;;21.10;5.43;;;;;;;;;;6277051;22;20089;-84
2024/01/25 05:15:57;;;;;;;14.75;4.38;;;;;;;;;;6276523;22;20030;-82
2024/01/25 05:18:42;;;;;;;20.75;4.72;;;;;;;;;;6277560;22;20022;-84
2024/01/25 05:21:27;;;;;;;24.70;4.82;;;;;;;;;;6277039;22;20002;-82
2024/01/25 05:24:12;;;;;;;22.65;4.57;;;;;;;;;;6276826;22;20033;-83
2024/01/25 05:26:57;;;;;;;15.75;5.32;;;;;;;;;;6252072;22;20010;-84
2024/01/25 05:29:43;;;;;;;20.10;5.00;;;;;;;;;;6277767;22;20003;-83
2024/01/25 05:32:28;;;;;;;18.23;4.20;;;;;;;;;;6277063;22;20007;-85
2024/01/25 05:35:13;;;;;;;17.55;4.57;;;;;;;;;;6277407;22;20010;-84
2024/01/25 05:37:59;;;;;;;16.55;4.03;;;;;;;;;;6277198;22;20006;-85
2024/01/25 05:40:44;;;;;;;19.67;5.28;;;;;;;;;;6277341;22;19998;-83
2024/01/25 05:43:32;;;;;;;14.85;4.68;;;;;;;;;;6274202;22;19999;-84
2024/01/25 05:46:17;;;;;;;18.80;4.28;;;;;;;;;;6277464;22;20091;-86
2024/01/25 05:49:02;;;;;;;17.08;4.72;;;;;;;;;;6279320;22;19995;-90
2024/01/25 05:51:48;;;;;;;20.58;4.43;;;;;;;;;;6277617;22;20011;-86
2024/01/25 05:54:33;;;;;;;18.33;5.03;;;;;;;;;;6276765;22;19999;-86
2024/01/25 05:57:19;;;;;;;19.38;5.25;;;;;;;;;;6276082;22;20011;-86
2024/01/25 06:00:05;;;;;;;23.27;6.00;;;;;;;;;;6276594;22;20028;-86
2024/01/25 06:02:50;;;;;;;25.05;5.88;;;;;;;;;;6277093;22;20441;-86
2024/01/25 06:05:35;;;;;;;19.67;4.10;;;;;;;;;;6276439;22;20003;-87
2024/01/25 06:08:21;;;;;;;16.00;5.03;;;;;;;;;;6276523;22;19995;-86
2024/01/25 06:11:06;;;;;;;18.60;4.60;;;;;;;;;;6272563;22;20086;-82
2024/01/25 06:13:54;;;;;;;17.88;4.28;;;;;;;;;;6275950;22;20006;-84
2024/01/25 06:16:39;;;;;;;20.70;4.53;;;;;;;;;;6273417;22;20082;-85
2024/01/25 06:19:25;;;;;;;32.03;5.72;;;;;;;;;;6276044;22;20081;-81
2024/01/25 06:22:12;;;;;;;17.63;4.22;;;;;;;;;;6275776;22;20121;-82
2024/01/25 06:24:57;;;;;;;20.75;5.30;;;;;;;;;;6275859;22;20038;-81
2024/01/25 06:27:43;;;;;;;16.92;5.63;;;;;;;;;;6273297;22;19999;-80
2024/01/25 06:30:29;;;;;;;18.55;4.68;;;;;;;;;;6275472;22;20003;-80
2024/01/25 06:33:14;;;;;;;12.40;3.90;;;;;;;;;;6275669;22;19997;-80
2024/01/25 06:35:59;;;;;;;22.35;4.97;;;;;;;;;;6276161;22;20078;-81
2024/01/25 06:38:45;;;;;;;25.10;5.90;;;;;;;;;;6275738;22;20003;-79
2024/01/25 06:41:30;;;;;;;14.75;5.10;;;;;;;;;;6275801;22;20008;-80
2024/01/25 06:44:16;;;;;;;15.15;5.47;;;;;;;;;;6275618;22;20447;-80
2024/01/25 06:47:02;;;;;;;21.35;5.55;;;;;;;;;;6276189;22;20011;-81
2024/01/25 06:49:51;;;;;;;23.73;6.63;;;;;;;;;;6275541;22;20010;-80
2024/01/25 06:52:36;;;;;;;21.10;4.38;;;;;;;;;;6276567;22;19996;-80
2024/01/25 06:55:21;;;;;;;22.70;4.63;;;;;;;;;;6276327;22;20007;-81
2024/01/25 06:58:07;;;;;;;23.92;5.80;;;;;;;;;;6274306;22;20114;-80
2024/01/25 07:00:52;;;;;;;24.63;5.63;;;;;;;;;;6274539;22;20010;-83
2024/01/25 07:03:38;;;;;;;15.75;4.55;;;;;;;;;;6273274;22;20054;-80
2024/01/25 07:06:23;;;;;;;15.70;4.85;;;;;;;;;;6275114;22;20053;-78
2024/01/25 07:09:08;;;;;;;17.10;4.93;;;;;;;;;;6275239;22;19995;-78
2024/01/25 07:11:54;;;;;;;17.77;5.65;;;;;;;;;;6270926;22;20021;-81
2024/01/25 07:14:39;;;;;;;17.60;5.32;;;;;;;;;;6274489;22;20003;-79
2024/01/25 07:17:24;;;;;;;21.17;4.80;;;;;;;;;;6276934;22;19991;-78
2024/01/25 07:20:10;;;;;;;15.93;4.93;;;;;;;;;;6278396;22;20007;-78
2024/01/25 07:22:56;;;;;;;22.23;5.28;;;;;;;;;;6278287;22;20006;-79
2024/01/25 07:25:41;;;;;;;19.13;5.38;;;;;;;;;;6278361;22;20327;-79
2024/01/25 07:28:26;;;;;;;21.42;5.30;;;;;;;;;;6278350;22;20041;-79
2024/01/25 07:31:12;;;;;;;15.60;4.43;;;;;;;;;;6278546;22;20011;-81
2024/01/25 07:33:57;;;;;;;16.70;4.07;;;;;;;;;;6278508;22;20045;-78
2024/01/25 07:36:43;;;;;;;19.63;5.18;;;;;;;;;;6257500;22;19991;-79
2024/01/25 07:39:28;;;;;;;16.70;4.55;;;;;;;;;;6278154;22;20004;-78
2024/01/25 07:42:14;;;;;;;17.63;4.30;;;;;;;;;;6275746;22;20006;-79
2024/01/25 07:44:59;;;;;;;13.93;4.28;;;;;;;;;;6276709;22;20007;-81
2024/01/25 07:47:48;;;;;;;19.30;5.45;;;;;;;;;;6277906;22;20221;-80
2024/01/25 07:50:33;;;;;;;17.63;4.70;;;;;;;;;;6274906;22;20011;-80
2024/01/25 07:53:18;;;;;;;15.68;4.80;;;;;;;;;;6278396;22;19999;-81
2024/01/25 07:56:06;;;;;;;18.67;5.13;;;;;;;;;;6275020;22;19999;-79
2024/01/25 07:58:51;;;;;;;18.63;4.43;;;;;;;;;;6277057;22;20564;-79
2024/01/25 08:01:36;;;;;;;16.92;6.28;;;;;;;;;;6276486;22;20014;-82
2024/01/25 08:04:21;;;;;;;17.83;4.40;;;;;;;;;;6275457;22;20450;-80
2024/01/25 08:07:07;;;;;;;17.10;4.57;;;;;;;;;;6278216;22;20060;-81
2024/01/25 08:09:53;;;;;;;21.70;6.00;;;;;;;;;;6276420;22;20436;-80
2024/01/25 08:12:39;;;;;;;24.77;5.20;;;;;;;;;;6277396;22;20118;-80
2024/01/25 08:15:25;;;;;;;22.70;6.05;;;;;;;;;;6277811;22;20074;-81
2024/01/25 08:18:10;;;;;;;14.10;4.90;;;;;;;;;;6278152;22;20002;-80
2024/01/25 08:20:56;;;;;;;13.70;5.38;;;;;;;;;;6277287;22;20087;-79
2024/01/25 08:23:41;;;;;;;17.55;4.82;;;;;;;;;;6277491;22;20007;-79
2024/01/25 08:26:27;;;;;;;22.02;6.43;;;;;;;;;;6256134;22;20049;-78
2024/01/25 08:29:12;;;;;;;21.42;5.00;;;;;;;;;;6275248;22;20010;-80
2024/01/25 08:31:57;;;;;;;15.98;5.30;;;;;;;;;;6276547;22;20011;-78
2024/01/25 08:34:42;;;;;;;16.73;4.72;;;;;;;;;;6276321;22;19991;-78
2024/01/25 08:37:28;;;;;;;15.15;4.47;;;;;;;;;;6276075;22;20073;-79
2024/01/25 08:40:13;;;;;;;20.63;5.18;;;;;;;;;;6275995;22;19999;-79
2024/01/25 08:42:58;;;;;;;16.73;5.53;;;;;;;;;;6274311;22;20522;-79
2024/01/25 08:45:44;;;;;;;20.50;5.20;;;;;;;;;;6275061;22;20007;-81
2024/01/25 08:48:29;;;;;;;20.25;4.85;;;;;;;;;;6275170;22;20030;-83
2024/01/25 08:51:14;;;;;;;25.08;5.57;;;;;;;;;;6272979;22;20003;-78
2024/01/25 08:53:59;;;;;;;15.10;4.57;;;;;;;;;;6276298;22;20374;-80
2024/01/25 08:56:45;;;;;;;21.00;5.57;;;;;;;;;;6275406;22;20069;-81
2024/01/25 08:59:32;;;;;;;15.07;6.07;;;;;;;;;;6275522;22;20283;-80
2024/01/25 09:02:18;;;;;;;22.45;5.78;;;;;;;;;;6275953;22;20379;-80
2024/01/25 09:05:08;;;;;;;25.40;8.07;;;;;;;;;;6276857;22;19999;-80
2024/01/25 09:07:53;;;;;;;15.32;4.75;;;;;;;;;;6274858;22;19995;-80
2024/01/25 09:10:40;;;;;;;18.90;4.78;;;;;;;;;;6275181;22;20094;-80
2024/01/25 09:13:25;;;;;;;18.77;5.03;;;;;;;;;;6275543;22;20003;-79
2024/01/25 09:16:10;;;;;;;19.23;4.10;;;;;;;;;;6278348;22;20010;-79
2024/01/25 09:18:56;;;;;;;25.75;5.45;;;;;;;;;;6276000;22;19995;-79
2024/01/25 09:21:41;;;;;;;14.25;3.88;;;;;;;;;;6276347;22;20003;-79
2024/01/25 09:24:26;;;;;;;17.13;5.72;;;;;;;;;;6275383;22;20098;-80
2024/01/25 09:27:12;;;;;;;18.98;4.63;;;;;;;;;;6275502;22;19999;-80
2024/01/25 09:29:57;;;;;;;14.73;4.18;;;;;;;;;;6274918;22;20031;-80
2024/01/25 09:32:43;;;;;;;19.73;4.65;;;;;;;;;;6276271;22;19991;-79
2024/01/25 09:35:28;;;;;;;17.08;4.60;;;;;;;;;;6276079;22;20006;-80
2024/01/25 09:38:13;;;;;;;15.93;4.10;;;;;;;;;;6275910;22;19995;-80
2024/01/25 09:40:59;;;;;;;17.92;4.25;;;;;;;;;;6275392;22;20003;-79
2024/01/25 09:43:45;;;;;;;18.15;4.30;;;;;;;;;;6274383;22;20003;-80
2024/01/25 09:46:31;;;;;;;12.25;3.80;;;;;;;;;;6273880;22;20003;-80
2024/01/25 09:49:16;;;;;;;23.05;4.85;;;;;;;;;;6275562;22;20007;-80
2024/01/25 09:52:05;;;;;;;18.67;5.55;;;;;;;;;;6273900;22;20003;-79
2024/01/25 09:54:52;;;;;;;24.67;5.18;;;;;;;;;;6274499;22;20052;-81
2024/01/25 09:57:38;;;;;;;17.50;4.65;;;;;;;;;;6274506;22;19995;-79
2024/01/25 10:00:23;;;;;;;19.52;5.75;;;;;;;;;;6254297;22;20086;-79
2024/01/25 10:03:09;;;;;;;18.55;6.03;;;;;;;;;;6275066;22;20002;-80
2024/01/25 10:05:54;;;;;;;29.55;5.35;;;;;;;;;;6275918;22;19999;-80
2024/01/25 10:08:40;;;;;;;15.55;3.75;;;;;;;;;;6275593;22;20520;-79
2024/01/25 10:11:25;;;;;;;21.48;5.25;;;;;;;;;;6274279;22;20033;-80
2024/01/25 10:14:11;;;;;;;20.30;4.85;;;;;;;;;;6274845;22;19995;-79
2024/01/25 10:16:57;;;;;;;21.55;5.55;;;;;;;;;;6274179;22;20026;-79
2024/01/25 10:19:43;;;;;;;25.73;5.13;;;;;;;;;;6274530;22;20048;-79
2024/01/25 10:22:28;;;;;;;18.95;4.97;;;;;;;;;;6274488;22;20073;-80
2024/01/25 10:25:14;;;;;;;18.25;4.45;;;;;;;;;;6275074;22;19995;-80
2024/01/25 10:27:59;;;;;;;14.38;3.63;;;;;;;;;;6274311;22;20060;-80
2024/01/25 10:30:44;;;;;;;15.23;4.90;;;;;;;;;;6275038;22;20003;-81
2024/01/25 10:33:31;;;;;;;20.38;4.10;;;;;;;;;;6274639;22;20000;-79
2024/01/25 10:36:16;;;;;;;18.65;4.03;;;;;;;;;;6275902;22;19999;-81
2024/01/25 10:39:04;;;;;;;12.80;3.60;;;;;;;;;;6274581;22;20053;-83
2024/01/25 10:41:50;;;;;;;16.45;3.45;;;;;;;;;;6274321;22;20487;-79
2024/01/25 10:44:35;;;;;;;15.32;4.20;;;;;;;;;;6275215;22;20007;-81
2024/01/25 10:47:21;;;;;;;17.08;4.53;;;;;;;;;;6252210;22;20025;-82
2024/01/25 10:50:11;;;;;;;13.52;4.38;;;;;;;;;;6274307;22;20862;-82
2024/01/25 10:52:57;;;;;;;13.90;3.83;;;;;;;;;;6273936;22;20053;-79
2024/01/25 10:55:42;;;;;;;12.02;4.28;;;;;;;;;;6275508;22;20003;-79
2024/01/25 10:58:33;;;;;;;19.58;4.55;;;;;;;;;;6272567;22;19999;-79
2024/01/25 11:01:18;;;;;;;11.27;4.13;;;;;;;;;;6275515;22;19999;-80
2024/01/25 11:04:11;;;;;;;13.15;3.85;;;;;;;;;;6275081;22;20050;-79
2024/01/25 11:07:04;;;;;;;13.60;4.63;;;;;;;;;;6273688;22;20017;-79
2024/01/25 11:09:52;;;;;;;14.35;3.58;;;;;;;;;;6275678;22;20003;-80
2024/01/25 11:12:46;;;;;;;13.52;4.47;;;;;;;;;;6273876;22;20014;-78
2024/01/25 11:15:32;;;;;;;13.70;4.75;;;;;;;;;;6275861;22;20042;-81
2024/01/25 11:18:18;;;;;;;11.40;2.88;;;;;;;;;;6253922;22;20011;-81
2024/01/25 11:21:05;;;;;;;10.60;3.50;;;;;;;;;;6276890;22;19991;-80
2024/01/25 11:23:58;;;;;;;16.50;4.55;;;;;;;;;;6274859;22;20002;-80
2024/01/25 11:26:44;;;;;;;17.77;3.67;;;;;;;;;;6275056;22;20096;-80
2024/01/25 11:29:30;;;;;;;11.73;2.97;;;;;;;;;;6274380;22;20006;-79
2024/01/25 11:32:15;;;;;;;17.92;3.30;;;;;;;;;;6275592;22;20003;-80
2024/01/25 11:35:01;;;;;;;11.45;3.72;;;;;;;;;;6275655;22;20060;-80
2024/01/25 11:37:47;;;;;;;11.25;4.00;;;;;;;;;;6274738;22;20027;-80
2024/01/25 11:40:33;;;;;;;12.25;3.85;;;;;;;;;;6275089;22;20053;-80
2024/01/25 11:43:19;;;;;;;16.77;4.50;;;;;;;;;;6274242;22;20003;-80
2024/01/25 11:46:04;;;;;;;12.07;4.13;;;;;;;;;;6274727;22;20035;-86
2024/01/25 11:48:49;;;;;;;10.43;3.20;;;;;;;;;;6275900;22;19999;-92
2024/01/25 11:51:34;;;;;;;11.27;3.28;;;;;;;;;;6277276;22;20037;-88
2024/01/25 11:54:20;;;;;;;9.45;3.10;;;;;;;;;;6255661;22;20431;-88
2024/01/25 11:57:05;;;;;;;12.80;2.80;;;;;;;;;;6283543;22;20003;-86
2024/01/25 11:59:51;;;;;;;10.73;3.20;;;;;;;;;;6277453;22;20003;-86
2024/01/25 12:02:38;;;;;;;12.55;3.58;;;;;;;;;;6287866;22;20439;-91
2024/01/25 12:05:26;;;;;;;11.50;3.03;;;;;;;;;;6296686;22;20044;-94
2024/01/25 12:08:13;;;;;;;8.88;2.72;;;;;;;;;;6287728;22;20029;-82
2024/01/25 12:11:11;;;;;;;11.05;3.13;;;;;;;;;;6278389;22;20073;-82
2024/01/25 12:13:56;;;;;;;10.43;3.30;;;;;;;;;;6277326;22;20380;-83
2024/01/25 12:16:41;;;;;;;11.13;2.72;;;;;;;;;;6279979;22;19995;-83
2024/01/25 12:19:27;;;;;;;14.82;3.63;;;;;;;;;;6303814;22;20153;-83
2024/01/25 12:22:19;;;;;;;12.95;3.45;;;;;;;;;;6280266;22;19999;-81
2024/01/25 12:25:13;;;;;;;10.43;2.75;;;;;;;;;;6297044;22;20027;-83
2024/01/25 12:27:59;;;;;;;11.98;3.05;;;;;;;;;;6307254;22;19995;-83
2024/01/25 12:30:44;;;;;;;14.38;3.47;;;;;;;;;;6281999;22;20003;-78
2024/01/25 12:33:30;;;;;;;10.07;2.95;;;;;;;;;;6276500;22;20066;-78
2024/01/25 12:36:15;;;;;;;11.73;3.03;;;;;;;;;;6277332;22;20030;-79
2024/01/25 12:39:01;;;;;;;11.00;3.22;;;;;;;;;;6270045;22;20032;-87
2024/01/25 12:41:46;;;;;;;10.70;3.03;;;;;;;;;;6278705;22;20009;-80
2024/01/25 12:44:31;;;;;;;16.20;3.75;;;;;;;;;;6278493;22;19995;-84
2024/01/25 12:47:16;;;;;;;12.75;3.60;;;;;;;;;;6278724;22;20073;-84
2024/01/25 12:50:02;;;;;;;12.07;3.42;;;;;;;;;;6277200;22;20007;-88
2024/01/25 12:52:47;;;;;;;15.27;3.05;;;;;;;;;;6260302;22;20126;-89
2024/01/25 12:55:33;;;;;;;18.35;4.07;;;;;;;;;;6261156;22;20464;-87
2024/01/25 12:58:18;;;;;;;15.13;4.22;;;;;;;;;;6261763;22;20205;-87
2024/01/25 13:01:03;;;;;;;14.35;3.28;;;;;;;;;;6261305;22;20010;-86
2024/01/25 13:03:49;;;;;;;13.15;3.33;;;;;;;;;;6254221;22;20291;-85
2024/01/25 13:06:34;;;;;;;13.27;3.25;;;;;;;;;;6253246;22;20390;-86
2024/01/25 13:09:19;;;;;;;12.77;3.58;;;;;;;;;;6254310;22;20031;-85
2024/01/25 13:12:05;;;;;;;18.30;3.20;;;;;;;;;;6259415;22;20363;-86
2024/01/25 13:14:50;;;;;;;9.15;2.83;;;;;;;;;;6256487;22;20000;-85
2024/01/25 13:17:37;;;;;;;19.13;4.47;;;;;;;;;;6261290;22;20569;-85
2024/01/25 13:20:22;;;;;;;11.70;2.90;;;;;;;;;;6264715;22;20003;-85
2024/01/25 13:23:08;;;;;;;8.95;3.03;;;;;;;;;;6272523;22;20011;-85
2024/01/25 13:25:53;;;;;;;11.73;3.28;;;;;;;;;;6274140;22;19999;-87
2024/01/25 13:28:38;;;;;;;12.40;2.58;;;;;;;;;;6274828;22;20006;-83
2024/01/25 13:31:23;;;;;;;12.57;3.38;;;;;;;;;;6277713;22;20463;-85
2024/01/25 13:34:08;;;;;;;14.75;3.85;;;;;;;;;;6277019;22;19995;-86
2024/01/25 13:36:54;;;;;;;10.68;3.25;;;;;;;;;;6277721;22;19992;-85
2024/01/25 13:39:39;;;;;;;12.82;3.17;;;;;;;;;;6275243;22;20006;-85
2024/01/25 13:42:25;;;;;;;9.82;2.90;;;;;;;;;;6275292;22;20495;-87
2024/01/25 13:45:10;;;;;;;10.70;2.85;;;;;;;;;;6275626;22;20067;-84
2024/01/25 13:47:55;;;;;;;18.15;3.50;;;;;;;;;;6275934;22;20056;-84
2024/01/25 13:50:40;;;;;;;10.48;2.97;;;;;;;;;;6274188;22;20003;-83
2024/01/25 13:53:26;;;;;;;15.32;4.25;;;;;;;;;;6275107;22;20002;-83
2024/01/25 13:56:11;;;;;;;11.15;3.33;;;;;;;;;;6274309;22;20006;-83
2024/01/25 13:58:56;;;;;;;16.90;3.55;;;;;;;;;;6275999;22;20070;-84
2024/01/25 14:01:41;;;;;;;9.40;3.35;;;;;;;;;;6274845;22;20088;-83
2024/01/25 14:04:27;;;;;;;17.40;3.33;;;;;;;;;;6274716;22;20694;-82
2024/01/25 14:07:14;;;;;;;14.15;4.38;;;;;;;;;;6274885;22;19999;-84
2024/01/25 14:09:59;;;;;;;10.13;2.83;;;;;;;;;;6275579;22;20006;-83
2024/01/25 14:12:44;;;;;;;11.55;2.72;;;;;;;;;;6274690;22;20039;-84
2024/01/25 14:15:30;;;;;;;13.77;3.15;;;;;;;;;;6274244;22;20069;-83
2024/01/25 14:18:15;;;;;;;14.02;3.72;;;;;;;;;;6274759;22;20432;-82
2024/01/25 14:21:00;;;;;;;10.15;3.72;;;;;;;;;;6275941;22;20030;-82
2024/01/25 14:23:46;;;;;;;13.88;2.97;;;;;;;;;;6273847;22;20003;-83
2024/01/25 14:26:31;;;;;;;13.23;4.25;;;;;;;;;;6273349;22;20056;-83
2024/01/25 14:29:16;;;;;;;13.35;4.47;;;;;;;;;;6273653;22;20002;-82
2024/01/25 14:32:02;;;;;;;14.40;4.35;;;;;;;;;;6276014;22;20003;-81
2024/01/25 14:34:47;;;;;;;17.05;4.88;;;;;;;;;;6274920;22;20393;-82
2024/01/25 14:37:32;;;;;;;18.42;2.90;;;;;;;;;;6273990;22;20026;-83
2024/01/25 14:40:18;;;;;;;14.85;3.33;;;;;;;;;;6275130;22;20006;-83
2024/01/25 14:43:03;;;;;;;14.13;3.72;;;;;;;;;;6275805;22;20026;-88
2024/01/25 14:45:48;;;;;;;16.15;3.83;;;;;;;;;;6275939;22;19995;-87
2024/01/25 14:48:33;;;;;;;17.65;3.20;;;;;;;;;;6275465;22;20331;-85
2024/01/25 14:51:19;;;;;;;12.60;4.25;;;;;;;;;;6274010;22;20110;-84
2024/01/25 14:54:05;;;;;;;14.50;3.35;;;;;;;;;;6276471;22;19999;-85
2024/01/25 14:56:50;;;;;;;11.60;3.45;;;;;;;;;;6275379;22;19998;-85
2024/01/25 14:59:35;;;;;;;13.13;3.78;;;;;;;;;;6275320;22;20053;-85
2024/01/25 15:02:20;;;;;;;12.23;3.63;;;;;;;;;;6275739;22;20466;-84
2024/01/25 15:05:06;;;;;;;13.32;4.03;;;;;;;;;;6274150;22;20022;-84
2024/01/25 15:07:51;;;;;;;13.52;3.47;;;;;;;;;;6275259;22;20385;-84
2024/01/25 15:10:36;;;;;;;12.23;3.92;;;;;;;;;;6274335;22;20328;-85
2024/01/25 15:13:25;;;;;;;9.65;3.13;;;;;;;;;;6274646;22;20107;-85
2024/01/25 15:16:10;;;;;;;18.13;3.53;;;;;;;;;;6274853;22;20018;-84
2024/01/25 15:18:55;;;;;;;9.88;3.40;;;;;;;;;;6275341;22;19999;-85
2024/01/25 15:21:40;;;;;;;17.63;3.60;;;;;;;;;;6275240;22;20003;-84
2024/01/25 15:24:26;;;;;;;14.27;3.20;;;;;;;;;;6275749;22;20000;-82
2024/01/25 15:27:11;;;;;;;17.90;3.38;;;;;;;;;;6275594;22;20005;-87
2024/01/25 15:29:57;;;;;;;15.75;3.45;;;;;;;;;;6274461;22;20120;-83
2024/01/25 15:32:42;;;;;;;10.75;3.35;;;;;;;;;;6274811;22;20007;-85
2024/01/25 15:35:28;;;;;;;10.27;3.10;;;;;;;;;;6274198;22;20003;-85
2024/01/25 15:38:17;;;;;;;11.82;3.17;;;;;;;;;;6275739;22;20003;-84
2024/01/25 15:41:02;;;;;;;10.65;2.95;;;;;;;;;;6276452;22;20039;-79
2024/01/25 15:43:48;;;;;;;11.90;2.67;;;;;;;;;;6276483;22;20005;-80
2024/01/25 15:46:33;;;;;;;12.90;3.05;;;;;;;;;;6277099;22;19999;-85
2024/01/25 15:49:20;;;;;;;15.65;3.25;;;;;;;;;;6277313;22;19995;-83
2024/01/25 15:52:05;;;;;;;11.95;3.95;;;;;;;;;;6276947;22;20123;-84
2024/01/25 15:54:51;;;;;;;14.88;3.88;;;;;;;;;;6276959;22;20018;-84
2024/01/25 15:57:36;;;;;;;10.15;2.83;;;;;;;;;;6276851;22;20003;-84
2024/01/25 16:00:21;;;;;;;11.23;3.83;;;;;;;;;;6276423;22;19995;-82
2024/01/25 16:03:07;;;;;;;19.98;4.30;;;;;;;;;;6277481;22;20007;-85
2024/01/25 16:05:55;;;;;;;13.38;3.97;;;;;;;;;;6273916;22;19999;-84
2024/01/25 16:08:40;;;;;;;9.90;3.83;;;;;;;;;;6276989;22;20034;-84
2024/01/25 16:11:26;;;;;;;13.70;3.72;;;;;;;;;;6273380;22;20469;-84
2024/01/25 16:14:11;;;;;;;20.85;5.10;;;;;;;;;;6276743;22;19999;-83
2024/01/25 16:16:56;;;;;;;13.77;3.28;;;;;;;;;;6277130;22;19995;-85
2024/01/25 16:19:41;;;;;;;11.27;3.70;;;;;;;;;;6278068;22;20585;-86